KBFD

Bradford Regional Airport

Airport
ICAO code
KBFD
IATA Code
BFD
Summary
ICAO Region
NAM
ICAO Territory
Location

Lafayette Township, Pennsylvania

Serving
Bradford
Elevation
2143 ft
Coordinates
41° 47' 58" N , 78° 38' 23" W
KCC
Airport GND
Aircraft Ground De/Anti Icing
Airport RE
Landing on Contaminated Runways
Airport WX
Cumulonimbus
Metar
KBFD 142353Z AUTO 33004KT 10SM CLR 16/10 A2971 RMK AO2 LTG DSNT S SLP058 60002 T01610100 10239 20161 53017

Description

Bradford Regional Airport is a public use airport located in Lewis Run, 11 nm south of the central business district of Bradford, a city in McKean County, Pennsylvania.

Airport map

Aerial View

SKYbrary Partners:

Safety knowledge contributed by: